Time;durP1;ratioP1;P1;durP2;ratioP2;P2;SDS_P1;SDS_P2;PMS_P1;PMS_P2;Temp;Humidity;BMP_temperature;BMP_pressure;BME280_temperature;BME280_humidity;BME280_pressure;Samples;Min_cycle;Max_cycle;Signal;HPM_P1;HPM_P2
2021/06/09 00:01:58;;;;;;;2.60;2.10;;;;;;;11.40;77.14;101541.63;4942429;28;20097;-80
2021/06/09 00:04:25;;;;;;;4.07;1.88;;;;;;;11.43;77.10;101543.34;4932542;28;20054;-79
2021/06/09 00:06:52;;;;;;;4.88;1.98;;;;;;;11.40;76.91;101546.03;4973705;28;20046;-79
2021/06/09 00:09:18;;;;;;;2.42;1.90;;;;;;;11.41;77.05;101546.03;4948043;28;20075;-80
2021/06/09 00:11:45;;;;;;;3.40;2.10;;;;;;;11.37;77.57;101539.03;4947241;28;20047;-80
2021/06/09 00:14:14;;;;;;;2.35;1.80;;;;;;;11.33;77.66;101539.94;4939084;28;20121;-79
2021/06/09 00:16:41;;;;;;;2.92;1.77;;;;;;;11.29;78.10;101535.56;4956387;28;20500;-79
2021/06/09 00:19:08;;;;;;;2.58;2.30;;;;;;;11.25;77.99;101539.13;5027561;23;20058;-78
2021/06/09 00:21:34;;;;;;;2.90;2.20;;;;;;;11.12;78.64;101530.44;4947932;28;20038;-77
2021/06/09 00:24:02;;;;;;;2.30;2.03;;;;;;;11.13;79.00;101526.91;4957109;28;20039;-76
2021/06/09 00:26:28;;;;;;;2.65;1.83;;;;;;;11.04;79.40;101526.97;4950906;28;20039;-78
2021/06/09 00:28:55;;;;;;;4.03;2.38;;;;;;;11.03;79.59;101527.88;4944779;28;20109;-76
2021/06/09 00:31:22;;;;;;;2.67;2.00;;;;;;;10.96;80.07;101529.69;4928231;29;20612;-76
2021/06/09 00:33:49;;;;;;;2.63;1.75;;;;;;;10.97;79.83;101531.44;4967213;28;20043;-78
2021/06/09 00:36:16;;;;;;;2.85;2.05;;;;;;;10.93;79.74;101535.00;4931582;29;20043;-76
2021/06/09 00:38:43;;;;;;;2.45;2.03;;;;;;;10.84;80.58;101539.47;4954308;28;20050;-76
2021/06/09 00:41:10;;;;;;;3.28;2.10;;;;;;;10.87;80.42;101535.06;4950807;28;20062;-75
2021/06/09 00:43:37;;;;;;;4.35;2.33;;;;;;;10.84;80.88;101539.47;4941662;28;20036;-77
2021/06/09 00:46:11;;;;;;;2.95;2.20;;;;;;;10.77;81.29;101537.78;4950194;29;20500;-77
2021/06/09 00:48:40;;;;;;;2.80;1.92;;;;;;;10.74;81.64;101536.03;4938785;29;20035;-77
2021/06/09 00:51:16;;;;;;;2.55;2.05;;;;;;;10.71;80.95;101539.56;4948625;28;20043;-76
2021/06/09 00:53:49;;;;;;;3.15;2.40;;;;;;;10.66;81.19;101538.72;4932878;29;20076;-78
2021/06/09 00:56:18;;;;;;;2.33;1.90;;;;;;;10.64;81.53;101536.97;4933582;29;20047;-76
2021/06/09 00:58:46;;;;;;;2.33;2.05;;;;;;;10.59;81.96;101531.72;4935403;29;20039;-76
2021/06/09 01:01:17;;;;;;;2.50;2.17;;;;;;;10.54;82.21;101541.44;4952076;29;20055;-77
2021/06/09 01:03:44;;;;;;;2.33;1.85;;;;;;;10.49;82.30;101540.59;4915586;29;20139;-75
2021/06/09 01:06:11;;;;;;;2.72;2.22;;;;;;;10.45;82.49;101544.16;4962498;28;20043;-76
2021/06/09 01:08:39;;;;;;;3.92;1.98;;;;;;;10.39;82.84;101537.13;4934068;29;20492;-76
2021/06/09 01:11:09;;;;;;;3.42;2.03;;;;;;;10.32;82.86;101534.53;4928147;29;20047;-77
2021/06/09 01:13:36;;;;;;;2.47;2.00;;;;;;;10.21;83.95;101536.31;4950084;28;20051;-78
2021/06/09 01:16:03;;;;;;;2.50;2.30;;;;;;;10.19;84.30;101531.06;4947890;28;20047;-77
2021/06/09 01:18:29;;;;;;;2.47;1.90;;;;;;;10.13;84.45;101534.59;4933642;29;20036;-77
2021/06/09 01:20:59;;;;;;;3.42;2.20;;;;;;;10.10;84.44;101533.75;4945123;28;20047;-77
2021/06/09 01:23:27;;;;;;;2.83;2.15;;;;;;;10.05;84.72;101540.78;4947890;28;20091;-77
2021/06/09 01:25:54;;;;;;;4.47;2.00;;;;;;;10.00;84.60;101534.63;4946663;28;20310;-76
2021/06/09 01:28:21;;;;;;;2.92;2.15;;;;;;;9.99;84.68;101530.25;4923020;29;21439;-75
2021/06/09 01:30:48;;;;;;;3.47;2.08;;;;;;;9.97;85.64;101524.97;4953919;28;20095;-76
2021/06/09 01:33:15;;;;;;;3.67;2.60;;;;;;;9.96;85.00;101532.91;4945866;28;20537;-76
2021/06/09 01:35:43;;;;;;;2.70;2.33;;;;;;;9.96;84.85;101531.16;4932483;29;20036;-78
2021/06/09 01:38:10;;;;;;;3.22;2.40;;;;;;;9.90;85.23;101528.53;4943114;28;20039;-77
2021/06/09 01:40:37;;;;;;;4.32;2.30;;;;;;;9.82;85.62;101530.31;4931491;29;20051;-77
2021/06/09 01:43:04;;;;;;;2.65;2.13;;;;;;;9.79;85.86;101530.34;4935005;28;20056;-77
2021/06/09 01:45:35;;;;;;;2.85;2.08;;;;;;;9.78;85.81;101532.09;4919634;29;20039;-77
2021/06/09 01:48:03;;;;;;;2.92;2.30;;;;;;;9.75;86.28;101528.56;4930523;29;20078;-76
2021/06/09 01:50:30;;;;;;;3.13;2.33;;;;;;;9.65;86.51;101525.09;4942209;29;20235;-75
2021/06/09 01:52:57;;;;;;;3.10;2.67;;;;;;;9.64;86.99;101527.72;4949018;28;20504;-77
2021/06/09 01:55:25;;;;;;;2.65;2.13;;;;;;;9.65;86.43;101526.84;4937198;28;20390;-76
2021/06/09 01:57:52;;;;;;;3.28;2.20;;;;;;;9.60;86.95;101526.88;4929807;28;20037;-77
2021/06/09 02:00:37;;;;;;;3.08;2.33;;;;;;;9.58;86.92;101518.06;4946012;29;20429;-77
2021/06/09 02:03:05;;;;;;;2.70;2.35;;;;;;;9.55;87.05;101518.97;4922392;29;20055;-77
2021/06/09 02:05:34;;;;;;;3.33;2.35;;;;;;;9.51;87.19;101516.34;4946448;28;20051;-77
2021/06/09 02:08:04;;;;;;;2.85;2.22;;;;;;;9.49;87.22;101516.31;4946496;28;20035;-77
2021/06/09 02:10:32;;;;;;;2.97;2.10;;;;;;;9.44;87.55;101517.25;4938284;29;20063;-76
2021/06/09 02:13:04;;;;;;;3.42;2.53;;;;;;;9.44;87.85;101515.47;4934909;28;20047;-76
2021/06/09 02:15:31;;;;;;;4.22;2.35;;;;;;;9.41;88.06;101517.22;4927810;29;20492;-77
2021/06/09 02:18:08;;;;;;;3.33;2.60;;;;;;;9.44;87.85;101514.59;4937627;29;20067;-77
2021/06/09 02:20:47;;;;;;;4.45;2.70;;;;;;;9.38;88.21;101517.25;4937203;28;20043;-75
2021/06/09 02:23:16;;;;;;;3.25;2.45;;;;;;;9.35;88.40;101512.00;4942692;28;20142;-77
2021/06/09 02:25:45;;;;;;;3.55;2.63;;;;;;;9.30;88.38;101518.13;4952870;28;20043;-78
2021/06/09 02:28:12;;;;;;;3.38;2.58;;;;;;;9.25;88.91;101517.28;4934148;28;20051;-75
2021/06/09 02:30:43;;;;;;;4.43;2.72;;;;;;;9.28;88.50;101519.03;4927469;29;20040;-76
2021/06/09 02:33:10;;;;;;;3.47;2.30;;;;;;;9.24;88.44;101507.59;4959518;28;20047;-76
2021/06/09 02:35:38;;;;;;;2.30;2.00;;;;;;;9.20;88.50;101511.13;4931809;29;20138;-77
2021/06/09 02:38:06;;;;;;;5.57;3.05;;;;;;;9.22;88.63;101517.25;4934943;29;20567;-77
2021/06/09 02:40:33;;;;;;;3.73;2.60;;;;;;;9.21;88.77;101512.00;4938328;28;20044;-77
2021/06/09 02:43:00;;;;;;;5.50;2.50;;;;;;;9.16;88.86;101509.34;4923353;29;20043;-77
2021/06/09 02:45:27;;;;;;;3.70;2.57;;;;;;;9.12;89.31;101517.28;4946939;29;20106;-76
2021/06/09 02:47:58;;;;;;;3.47;2.43;;;;;;;9.13;89.46;101513.75;4933917;28;20047;-77
2021/06/09 02:50:25;;;;;;;3.20;2.60;;;;;;;9.09;89.61;101517.31;4947664;28;20043;-76
2021/06/09 02:53:25;;;;;;;4.90;2.63;;;;;;;9.03;89.94;101510.25;4940934;29;20043;-74
2021/06/09 02:56:12;;;;;;;3.25;2.35;;;;;;;9.02;89.63;101513.78;4943844;29;20044;-78
2021/06/09 02:59:17;;;;;;;4.63;2.55;;;;;;;8.96;90.40;101517.28;4957743;28;20047;-76
2021/06/09 03:01:43;;;;;;;;;;;;;;;8.95;90.48;101514.66;4902763;29;20051;-76
2021/06/09 03:04:31;;;;;;;3.90;2.97;;;;;;;8.98;90.55;101512.00;4924727;29;19937;-77
2021/06/09 03:07:13;;;;;;;3.93;2.90;;;;;;;8.97;90.51;101503.22;4952732;28;20117;-76
2021/06/09 03:09:56;;;;;;;5.40;2.80;;;;;;;8.92;90.88;101510.28;4944077;28;20103;-77
2021/06/09 03:12:38;;;;;;;4.15;2.72;;;;;;;8.89;91.08;101510.25;4948507;29;20094;-78
2021/06/09 03:15:14;;;;;;;3.28;2.50;;;;;;;8.90;91.06;101506.72;4944818;28;20054;-78
2021/06/09 03:18:07;;;;;;;4.20;2.40;;;;;;;8.90;90.81;101511.13;4932439;29;20469;-77
2021/06/09 03:20:59;;;;;;;3.53;2.30;;;;;;;8.89;90.97;101506.75;4925518;29;20079;-77
2021/06/09 03:23:50;;;;;;;4.40;3.10;;;;;;;8.91;91.30;101505.88;4937261;29;20051;-77
2021/06/09 03:26:26;;;;;;;4.00;2.65;;;;;;;8.87;91.97;101501.47;4927012;29;20047;-77
2021/06/09 03:28:59;;;;;;;3.67;3.00;;;;;;;8.90;91.85;101506.72;4941883;29;20129;-76
2021/06/09 03:31:31;;;;;;;5.13;2.80;;;;;;;8.87;92.11;101517.28;4940179;29;20046;-77
2021/06/09 03:33:58;;;;;;;3.50;2.70;;;;;;;8.88;91.94;101499.72;4950552;28;20147;-77
2021/06/09 03:36:26;;;;;;;4.23;2.50;;;;;;;8.87;92.73;101504.13;4945157;28;20039;-76
2021/06/09 03:39:04;;;;;;;4.72;3.22;;;;;;;8.90;92.27;101505.84;4946335;28;20183;-76
2021/06/09 03:41:52;;;;;;;3.53;2.83;;;;;;;8.91;92.42;101510.25;4945556;28;20078;-77
2021/06/09 03:44:37;;;;;;;3.65;2.55;;;;;;;8.89;92.16;101507.63;4946901;28;20047;-77
2021/06/09 03:47:04;;;;;;;3.47;2.47;;;;;;;8.91;92.31;101507.63;4933361;29;20062;-77
2021/06/09 03:49:31;;;;;;;3.40;2.63;;;;;;;8.93;92.35;101506.75;4944965;28;20051;-75
2021/06/09 03:51:58;;;;;;;4.57;3.03;;;;;;;8.94;92.59;101497.97;4946879;28;20047;-77
2021/06/09 03:54:29;;;;;;;3.50;2.70;;;;;;;8.94;93.10;101503.25;4930320;29;20678;-75
2021/06/09 03:56:57;;;;;;;3.47;2.97;;;;;;;8.97;92.74;101503.22;4924017;29;20099;-77
2021/06/09 03:59:25;;;;;;;3.60;3.10;;;;;;;8.98;92.83;101494.44;4934478;29;20508;-77
2021/06/09 04:01:52;;;;;;;3.50;2.50;;;;;;;8.99;92.45;101500.59;4940019;28;20051;-77
2021/06/09 04:04:21;;;;;;;3.42;2.75;;;;;;;9.01;92.06;101502.34;4938176;28;20398;-77
2021/06/09 04:06:50;;;;;;;3.07;2.77;;;;;;;9.08;91.49;101494.44;4916478;28;20051;-77
2021/06/09 04:09:22;;;;;;;3.73;3.03;;;;;;;9.10;92.13;101497.97;4927734;29;20047;-77
2021/06/09 04:11:52;;;;;;;2.73;2.50;;;;;;;9.13;92.29;101498.81;4933109;29;20043;-77
2021/06/09 04:14:20;;;;;;;4.72;2.95;;;;;;;9.16;92.87;101498.81;4924133;29;20509;-77
2021/06/09 04:16:47;;;;;;;3.28;2.70;;;;;;;9.19;93.23;101498.81;4922742;29;20051;-77
2021/06/09 04:19:15;;;;;;;3.00;2.70;;;;;;;9.24;93.09;101494.41;4957219;28;20054;-77
2021/06/09 04:21:41;;;;;;;3.83;2.95;;;;;;;9.24;93.14;101496.16;4946100;28;20091;-77
2021/06/09 04:24:09;;;;;;;6.05;3.05;;;;;;;9.26;92.95;101500.56;4948195;29;20051;-77
2021/06/09 04:26:37;;;;;;;3.05;2.65;;;;;;;9.28;92.95;101497.94;4936586;29;20131;-77
2021/06/09 04:29:04;;;;;;;2.83;2.40;;;;;;;9.35;92.96;101490.91;4946893;28;20035;-77
2021/06/09 04:31:31;;;;;;;3.03;2.45;;;;;;;9.41;93.06;101493.50;4942378;28;20520;-77
2021/06/09 04:33:58;;;;;;;3.55;2.60;;;;;;;9.47;93.43;101496.13;4951579;28;20066;-79
2021/06/09 04:36:25;;;;;;;3.15;2.65;;;;;;;9.50;93.87;101504.03;4927864;29;20047;-78
2021/06/09 04:38:52;;;;;;;4.18;2.75;;;;;;;9.53;93.86;101499.63;4949545;29;20036;-79
2021/06/09 04:41:19;;;;;;;3.58;2.72;;;;;;;9.57;94.03;101505.75;4920345;29;20075;-78
2021/06/09 04:43:47;;;;;;;3.45;2.78;;;;;;;9.62;93.72;101497.84;4929472;29;20047;-79
2021/06/09 04:46:19;;;;;;;4.70;2.63;;;;;;;9.67;93.66;101499.59;4944750;28;20051;-79
2021/06/09 04:49:00;;;;;;;3.60;2.70;;;;;;;9.74;93.64;101506.59;4927651;29;20040;-78
2021/06/09 04:51:31;;;;;;;4.50;2.90;;;;;;;9.81;93.48;101503.03;4937525;28;20102;-78
2021/06/09 04:54:01;;;;;;;3.42;2.88;;;;;;;9.86;93.52;101500.41;4912300;29;20102;-77
2021/06/09 04:56:35;;;;;;;3.25;2.70;;;;;;;9.97;93.75;101505.63;4928382;29;20079;-77
2021/06/09 04:59:04;;;;;;;4.63;2.15;;;;;;;10.12;93.44;101505.56;4949837;28;20051;-77
2021/06/09 05:01:31;;;;;;;3.47;2.72;;;;;;;10.23;92.79;101508.16;4949793;28;20106;-78
2021/06/09 05:03:58;;;;;;;3.20;2.83;;;;;;;10.24;92.71;101504.63;4928698;29;20058;-77
2021/06/09 05:06:26;;;;;;;3.60;2.97;;;;;;;10.27;92.57;101500.22;4936515;29;20118;-78
2021/06/09 05:08:53;;;;;;;3.45;2.70;;;;;;;10.34;92.38;101507.25;4946334;29;20039;-78
2021/06/09 05:11:27;;;;;;;4.97;2.60;;;;;;;10.44;92.40;101497.50;4939920;28;20048;-78
2021/06/09 05:13:56;;;;;;;2.95;2.28;;;;;;;10.78;91.99;101498.13;4931650;28;20135;-79
2021/06/09 05:16:27;;;;;;;2.80;2.13;;;;;;;11.73;88.70;101500.69;4944829;28;20528;-78
2021/06/09 05:18:58;;;;;;;3.72;2.40;;;;;;;12.27;85.54;101500.91;4929659;29;20130;-78
2021/06/09 05:21:29;;;;;;;2.58;2.38;;;;;;;12.34;85.25;101493.75;4941814;29;20401;-78
2021/06/09 05:23:56;;;;;;;3.58;2.53;;;;;;;12.31;85.69;101497.31;4943212;29;20047;-79
2021/06/09 05:26:26;;;;;;;3.28;2.53;;;;;;;12.34;86.72;101499.03;4924362;29;20517;-78
2021/06/09 05:29:02;;;;;;;3.05;2.50;;;;;;;12.39;87.25;101492.78;4920655;29;20050;-78
2021/06/09 05:31:30;;;;;;;3.00;2.40;;;;;;;12.35;88.57;101491.06;4928225;29;20066;-78
2021/06/09 05:33:57;;;;;;;3.83;2.53;;;;;;;12.43;90.33;101490.97;4945452;29;20055;-77
2021/06/09 05:36:24;;;;;;;4.50;2.80;;;;;;;12.42;91.40;101494.50;4916294;29;20059;-78
2021/06/09 05:38:51;;;;;;;3.65;2.55;;;;;;;12.90;90.79;101492.00;4947232;28;20048;-79
2021/06/09 05:41:20;;;;;;;4.10;2.70;;;;;;;13.41;89.32;101490.22;4924133;29;20047;-78
2021/06/09 05:43:46;;;;;;;3.50;3.13;;;;;;;14.54;86.51;101493.16;4951380;28;20046;-77
2021/06/09 05:46:13;;;;;;;3.03;2.03;;;;;;;16.87;77.20;101485.66;4930824;28;20039;-77
2021/06/09 05:48:43;;;;;;;2.33;2.13;;;;;;;18.97;66.81;101483.16;4949180;28;20437;-78
2021/06/09 05:51:11;;;;;;;4.53;2.20;;;;;;;20.79;59.58;101487.28;4948067;28;20063;-78
2021/06/09 05:53:38;;;;;;;3.13;2.00;;;;;;;22.40;53.13;101485.00;4952843;29;20090;-78
2021/06/09 05:56:05;;;;;;;2.78;1.85;;;;;;;23.90;48.89;101488.69;4944733;29;20094;-79
2021/06/09 05:58:32;;;;;;;1.85;1.70;;;;;;;24.92;45.05;101488.28;4960400;28;20121;-77
2021/06/09 06:01:03;;;;;;;1.60;1.50;;;;;;;25.38;43.61;101485.16;4929129;28;20054;-77
2021/06/09 06:03:30;;;;;;;1.70;1.60;;;;;;;25.57;44.51;101492.00;4963336;28;20620;-79
2021/06/09 06:06:02;;;;;;;1.90;1.70;;;;;;;25.01;39.42;101491.34;4932135;29;20114;-78
2021/06/09 06:08:29;;;;;;;2.35;1.80;;;;;;;24.30;41.84;101495.09;4947120;28;20035;-78
2021/06/09 06:11:01;;;;;;;6.25;2.03;;;;;;;23.59;42.16;101495.94;4945867;28;20156;-80
2021/06/09 06:13:28;;;;;;;1.90;1.70;;;;;;;23.36;47.06;101496.50;4948533;28;20051;-77
2021/06/09 06:15:56;;;;;;;2.47;1.92;;;;;;;22.57;44.71;101497.50;4947445;29;20066;-79
2021/06/09 06:18:33;;;;;;;2.28;1.77;;;;;;;22.62;47.09;101494.56;4935517;28;20051;-79
2021/06/09 06:21:00;;;;;;;2.22;1.92;;;;;;;22.69;48.39;101495.94;4953411;28;20382;-76
2021/06/09 06:23:27;;;;;;;3.53;2.28;;;;;;;22.56;46.16;101490.41;5018509;23;20233;-78
2021/06/09 06:26:08;;;;;;;5.47;2.65;;;;;;;22.55;47.51;101496.75;4948708;28;20141;-77
2021/06/09 06:28:38;;;;;;;4.07;2.60;;;;;;;22.68;47.21;101488.81;4936454;28;20039;-80
2021/06/09 06:31:10;;;;;;;92.65;12.95;;;;;;;22.76;47.35;101490.09;4927839;29;20035;-78
2021/06/09 06:33:40;;;;;;;3.55;2.00;;;;;;;22.87;46.91;101488.63;4941492;29;20074;-81
2021/06/09 06:36:10;;;;;;;3.00;2.45;;;;;;;23.03;47.67;101494.84;4943344;29;20055;-80
2021/06/09 06:38:37;;;;;;;3.05;2.20;;;;;;;23.13;46.27;101489.81;4927913;29;20189;-77
2021/06/09 06:41:05;;;;;;;3.63;2.13;;;;;;;23.20;46.39;101496.53;4947013;29;20047;-82
2021/06/09 06:43:32;;;;;;;2.70;2.10;;;;;;;22.93;44.39;101497.22;4939826;29;20043;-80
2021/06/09 06:45:59;;;;;;;4.30;2.22;;;;;;;22.88;46.41;101501.16;4923916;29;20064;-82
2021/06/09 06:48:26;;;;;;;3.20;2.10;;;;;;;23.08;46.77;101500.84;4936064;29;20067;-79
2021/06/09 06:50:53;;;;;;;2.63;1.90;;;;;;;23.28;45.66;101495.13;4915606;29;20604;-81
2021/06/09 06:53:20;;;;;;;2.35;2.00;;;;;;;23.40;45.80;101492.66;4902046;29;20102;-80
2021/06/09 06:55:46;;;;;;;3.63;2.25;;;;;;;23.62;44.89;101495.78;4929031;29;20098;-82
2021/06/09 06:58:13;;;;;;;3.28;2.30;;;;;;;23.77;44.91;101502.06;4930880;29;20051;-80
2021/06/09 07:00:40;;;;;;;2.15;1.95;;;;;;;23.95;43.51;101503.59;4932148;29;20098;-80
2021/06/09 07:03:08;;;;;;;3.67;2.40;;;;;;;24.11;43.15;101495.41;4926580;29;20572;-82
2021/06/09 07:05:35;;;;;;;2.90;1.95;;;;;;;24.20;42.88;101497.50;4944473;28;20044;-81
2021/06/09 07:08:03;;;;;;;3.30;2.13;;;;;;;23.92;42.17;101494.84;4936072;28;20107;-79
2021/06/09 07:10:30;;;;;;;2.58;1.88;;;;;;;24.03;42.48;101495.91;4928338;29;20040;-78
2021/06/09 07:12:59;;;;;;;2.67;2.20;;;;;;;23.92;43.33;101501.13;4939914;29;20058;-80
2021/06/09 07:15:26;;;;;;;3.05;2.10;;;;;;;23.94;42.78;101498.31;4941572;28;20102;-78
2021/06/09 07:17:56;;;;;;;2.80;1.85;;;;;;;24.15;41.84;101494.25;4921580;29;20063;-80
2021/06/09 07:20:24;;;;;;;2.55;2.20;;;;;;;23.97;41.42;101501.72;4944969;28;20039;-76
2021/06/09 07:22:53;;;;;;;2.13;1.80;;;;;;;23.91;42.80;101503.91;4914955;29;20457;-81
2021/06/09 07:25:21;;;;;;;4.07;2.10;;;;;;;23.63;42.58;101499.34;4916100;29;20102;-81
2021/06/09 07:27:51;;;;;;;3.00;2.05;;;;;;;23.68;43.39;101500.81;4924467;29;20409;-81
2021/06/09 07:30:27;;;;;;;2.53;2.10;;;;;;;23.67;43.42;101506.31;4929576;29;20050;-80
2021/06/09 07:32:54;;;;;;;3.67;2.33;;;;;;;23.65;43.04;101501.00;4948644;28;20058;-80
2021/06/09 07:35:21;;;;;;;3.17;2.10;;;;;;;23.87;43.19;101505.91;4916026;29;20501;-80
2021/06/09 07:37:50;;;;;;;2.65;1.95;;;;;;;24.01;42.93;101500.53;4914604;29;20554;-80
2021/06/09 07:40:21;;;;;;;2.72;2.22;;;;;;;23.71;41.18;101505.13;4924356;29;20051;-81
2021/06/09 07:42:54;;;;;;;2.83;1.98;;;;;;;24.05;43.65;101504.78;4924524;29;20055;-80
2021/06/09 07:45:22;;;;;;;2.58;1.80;;;;;;;24.36;43.67;101498.28;4925905;29;20496;-79
2021/06/09 07:47:50;;;;;;;2.15;1.95;;;;;;;24.67;42.90;101496.28;4928473;29;20122;-80
2021/06/09 07:50:24;;;;;;;12.90;2.88;;;;;;;24.73;41.59;101500.44;4940898;28;20048;-80
2021/06/09 07:52:51;;;;;;;2.88;1.70;;;;;;;24.90;40.44;101498.34;4930337;29;20040;-79
2021/06/09 07:55:17;;;;;;;1.92;1.63;;;;;;;24.68;39.31;101498.88;4928582;29;20047;-80
2021/06/09 07:57:44;;;;;;;2.67;2.45;;;;;;;24.95;40.64;101498.88;4926767;29;20043;-81
2021/06/09 08:00:12;;;;;;;2.33;2.00;;;;;;;24.76;38.51;101497.53;4895358;29;20052;-81
2021/06/09 08:02:43;;;;;;;3.05;1.98;;;;;;;25.04;39.95;101486.59;4927794;29;20082;-78
2021/06/09 08:05:11;;;;;;;2.13;1.92;;;;;;;25.35;40.98;101489.91;4933845;29;20055;-79
2021/06/09 08:07:39;;;;;;;4.40;2.85;;;;;;;25.24;38.71;101485.25;4930952;29;20063;-82
2021/06/09 08:10:08;;;;;;;2.72;1.90;;;;;;;25.27;39.38;101488.59;4928266;29;20099;-80
2021/06/09 08:12:35;;;;;;;3.38;2.20;;;;;;;25.09;39.68;101487.16;4928091;29;20071;-81
2021/06/09 08:15:03;;;;;;;3.22;2.50;;;;;;;25.22;39.97;101495.28;4911293;29;20248;-80
2021/06/09 08:17:30;;;;;;;12.35;3.20;;;;;;;25.27;39.93;101491.31;4929090;29;20523;-83
2021/06/09 08:19:57;;;;;;;4.25;2.38;;;;;;;25.56;38.79;101504.66;4927989;28;20032;-82
2021/06/09 08:22:23;;;;;;;2.30;2.10;;;;;;;25.52;38.80;101497.72;4925400;29;20035;-79
2021/06/09 08:24:50;;;;;;;3.08;2.22;;;;;;;25.45;38.83;101494.56;4926658;29;20040;-80
2021/06/09 08:27:17;;;;;;;3.65;2.00;;;;;;;25.60;39.81;101494.47;4941466;28;20119;-81
2021/06/09 08:29:43;;;;;;;3.45;2.70;;;;;;;24.69;39.61;101502.47;4950057;28;20042;-82
2021/06/09 08:32:10;;;;;;;2.33;2.13;;;;;;;25.14;41.11;101498.56;4933243;29;20044;-81
2021/06/09 08:34:37;;;;;;;3.35;2.17;;;;;;;25.33;41.57;101499.97;4928730;29;20577;-78
2021/06/09 08:37:04;;;;;;;4.30;2.40;;;;;;;25.34;39.12;101494.47;4933628;29;20048;-81
2021/06/09 08:39:31;;;;;;;3.70;2.05;;;;;;;25.19;38.85;101493.66;4935722;29;20039;-80
2021/06/09 08:42:01;;;;;;;2.50;2.00;;;;;;;25.08;40.52;101488.13;4933625;29;20039;-81
2021/06/09 08:44:28;;;;;;;2.38;2.17;;;;;;;25.61;40.70;101488.97;4930384;29;20051;-80
2021/06/09 08:46:58;;;;;;;3.53;3.03;;;;;;;25.66;39.09;101486.81;4946970;29;20040;-80
2021/06/09 08:49:25;;;;;;;2.40;2.08;;;;;;;25.65;39.31;101487.78;4930747;29;20054;-81
2021/06/09 08:51:53;;;;;;;3.08;2.20;;;;;;;25.94;38.97;101484.84;4921084;29;20063;-81
2021/06/09 08:54:22;;;;;;;2.47;2.05;;;;;;;25.98;39.10;101478.22;4935673;29;20397;-80
2021/06/09 08:56:51;;;;;;;2.97;2.20;;;;;;;26.19;39.73;101476.69;4940281;28;20075;-80
2021/06/09 08:59:21;;;;;;;253.95;32.03;;;;;;;26.50;37.76;101485.31;4924459;29;20046;-82
2021/06/09 09:01:48;;;;;;;7.93;2.50;;;;;;;26.53;37.48;101482.34;4951163;28;20035;-81
2021/06/09 09:04:15;;;;;;;3.38;2.10;;;;;;;26.66;37.71;101488.59;4934903;29;20134;-82
2021/06/09 09:06:42;;;;;;;3.22;2.33;;;;;;;26.81;36.34;101476.59;4917318;29;20056;-82
2021/06/09 09:09:09;;;;;;;3.03;2.10;;;;;;;26.90;36.63;101484.00;4953131;28;20044;-82
2021/06/09 09:11:36;;;;;;;2.75;1.70;;;;;;;26.96;36.46;101488.13;4949241;28;20047;-80
2021/06/09 09:14:03;;;;;;;2.03;1.80;;;;;;;26.86;34.59;101482.53;4933500;29;20055;-82
2021/06/09 09:16:29;;;;;;;2.95;1.80;;;;;;;26.80;33.78;101482.13;4945930;28;20043;-80
2021/06/09 09:19:04;;;;;;;2.05;1.70;;;;;;;26.65;35.35;101485.03;4920658;29;20123;-81
2021/06/09 09:21:34;;;;;;;3.30;2.10;;;;;;;26.84;35.56;101483.63;4931395;29;20038;-81
2021/06/09 09:24:05;;;;;;;3.47;1.90;;;;;;;26.79;33.94;101480.41;4932026;29;20107;-80
2021/06/09 09:26:34;;;;;;;2.45;2.00;;;;;;;26.03;36.95;101485.06;4936819;29;20094;-80
2021/06/09 09:29:20;;;;;;;2.60;1.85;;;;;;;26.52;35.37;101481.50;4939469;28;20371;-79
2021/06/09 09:31:59;;;;;;;2.35;2.15;;;;;;;26.07;36.59;101486.59;4915416;29;20102;-79
2021/06/09 09:34:37;;;;;;;2.03;1.83;;;;;;;26.69;37.11;101491.06;4930351;29;20070;-78
2021/06/09 09:37:04;;;;;;;1.95;1.75;;;;;;;26.59;35.15;101476.50;4918572;29;20332;-79
2021/06/09 09:39:31;;;;;;;2.90;2.30;;;;;;;26.83;34.78;101480.06;4930873;29;20091;-80
2021/06/09 09:42:15;;;;;;;20.80;3.60;;;;;;;27.19;35.48;101481.81;4955234;28;20036;-77
2021/06/09 09:44:42;;;;;;;2.15;1.95;;;;;;;26.41;35.33;101476.03;4933866;29;20050;-78
2021/06/09 09:47:17;;;;;;;2.92;1.90;;;;;;;26.73;35.84;101481.72;4938861;29;20125;-80
2021/06/09 09:49:44;;;;;;;3.25;2.10;;;;;;;26.94;35.63;101474.69;4947191;28;20078;-79
2021/06/09 09:52:11;;;;;;;1.73;1.63;;;;;;;27.21;35.59;101471.72;4931474;29;20044;-80
2021/06/09 09:54:39;;;;;;;5.85;2.28;;;;;;;27.44;35.09;101478.06;4915827;29;20043;-78
2021/06/09 09:57:09;;;;;;;2.25;1.80;;;;;;;27.72;33.92;101478.63;4934548;29;20051;-78
2021/06/09 09:59:36;;;;;;;3.33;2.20;;;;;;;26.80;33.70;101482.13;4940575;28;20036;-81
2021/06/09 10:02:04;;;;;;;2.83;1.75;;;;;;;27.23;35.08;101482.44;4934169;29;20051;-78
2021/06/09 10:04:34;;;;;;;2.03;1.83;;;;;;;25.96;35.42;101469.38;4920622;29;20050;-79
2021/06/09 10:07:03;;;;;;;1.95;1.70;;;;;;;26.82;35.71;101475.63;4928528;28;20051;-77
2021/06/09 10:09:39;;;;;;;2.20;1.80;;;;;;;27.07;35.13;101468.34;4922207;29;20039;-81
2021/06/09 10:12:08;;;;;;;3.25;2.03;;;;;;;27.44;35.54;101463.63;4953744;28;20042;-78
2021/06/09 10:14:50;;;;;;;1.80;1.70;;;;;;;27.59;34.17;101465.16;4932436;29;20047;-79
2021/06/09 10:17:23;;;;;;;2.60;2.40;;;;;;;27.21;34.84;101469.00;4933848;29;20044;-79
2021/06/09 10:20:01;;;;;;;2.45;2.10;;;;;;;27.23;35.09;101460.75;4931346;28;20040;-79
2021/06/09 10:22:35;;;;;;;2.33;1.77;;;;;;;27.16;34.33;101457.66;4910875;29;20048;-80
2021/06/09 10:25:20;;;;;;;2.63;2.00;;;;;;;27.40;33.67;101460.28;4937552;29;20075;-77
2021/06/09 10:27:51;;;;;;;2.60;1.80;;;;;;;27.53;34.46;101464.75;4932870;29;20513;-78
2021/06/09 10:30:19;;;;;;;3.35;2.33;;;;;;;27.25;32.89;101452.50;4895632;29;20047;-78
2021/06/09 10:32:48;;;;;;;2.25;1.60;;;;;;;27.52;31.67;101455.75;4936817;29;20051;-79
2021/06/09 10:35:21;;;;;;;2.40;2.08;;;;;;;26.52;34.21;101453.53;4915745;29;20043;-78
2021/06/09 10:37:49;;;;;;;1.80;1.70;;;;;;;26.68;34.45;101445.13;4930408;29;20513;-78
2021/06/09 10:40:19;;;;;;;2.28;2.08;;;;;;;27.24;34.68;101443.47;4928136;29;20413;-78
2021/06/09 10:42:48;;;;;;;2.35;2.15;;;;;;;27.23;34.75;101452.59;4920164;28;20043;-79
2021/06/09 10:45:17;;;;;;;3.40;2.08;;;;;;;27.23;35.33;101447.16;4929500;29;20047;-77
2021/06/09 10:47:45;;;;;;;2.25;2.05;;;;;;;27.28;36.04;101450.41;4930394;29;20067;-77
2021/06/09 10:50:12;;;;;;;4.13;2.22;;;;;;;27.23;35.51;101446.31;4932997;28;20114;-78
2021/06/09 10:52:40;;;;;;;2.10;1.90;;;;;;;27.00;36.19;101448.94;4932015;29;20048;-80
2021/06/09 10:55:09;;;;;;;2.03;1.83;;;;;;;26.73;34.55;101449.19;4918630;29;20119;-79
2021/06/09 10:57:36;;;;;;;7.20;2.58;;;;;;;26.90;35.91;101451.47;4929647;29;20039;-78
2021/06/09 11:00:08;;;;;;;5.35;2.08;;;;;;;27.16;34.57;101444.09;4915750;29;20952;-78
2021/06/09 11:02:35;;;;;;;2.33;2.13;;;;;;;26.81;35.69;101438.63;4945207;28;20043;-80
2021/06/09 11:05:07;;;;;;;2.10;1.60;;;;;;;27.18;34.92;101443.97;4929759;29;20053;-79
2021/06/09 11:07:54;;;;;;;2.10;1.90;;;;;;;27.43;33.86;101441.06;4929115;29;20035;-79
2021/06/09 11:10:29;;;;;;;2.15;1.70;;;;;;;27.56;33.71;101442.78;4942978;28;20039;-79
2021/06/09 11:12:57;;;;;;;2.47;1.73;;;;;;;27.40;34.51;101426.84;4931111;29;20040;-80
2021/06/09 11:15:32;;;;;;;2.60;1.98;;;;;;;27.54;33.58;101423.91;4913886;29;20079;-80
2021/06/09 11:18:02;;;;;;;2.25;1.80;;;;;;;28.04;33.17;101422.56;4930088;29;20035;-79
2021/06/09 11:20:34;;;;;;;2.47;2.00;;;;;;;28.32;32.55;101420.31;4943772;28;20050;-78
2021/06/09 11:23:10;;;;;;;1.90;1.80;;;;;;;28.13;34.25;101422.81;4950895;28;20051;-78
2021/06/09 11:25:38;;;;;;;2.00;1.80;;;;;;;28.18;34.67;101428.75;4910797;29;20067;-78
2021/06/09 11:28:12;;;;;;;3.28;1.90;;;;;;;28.16;33.89;101419.81;4933937;29;20066;-78
2021/06/09 11:30:43;;;;;;;2.20;1.80;;;;;;;28.21;32.72;101421.19;4916997;29;20138;-77
2021/06/09 11:33:28;;;;;;;2.10;1.90;;;;;;;28.41;33.36;101413.25;4913125;29;20047;-80
2021/06/09 11:35:58;;;;;;;1.88;1.73;;;;;;;28.24;32.93;101406.47;4935119;29;20075;-78
2021/06/09 11:38:30;;;;;;;1.98;1.73;;;;;;;28.05;34.07;101408.00;4913442;29;20048;-78
2021/06/09 11:41:10;;;;;;;2.45;1.60;;;;;;;28.46;33.54;101401.00;4930935;29;20043;-80